SHT4B EGLL-EGAC
Flight info
| Callsign | SHT4B |
|---|---|
| Flight time | 1h 0m |
| Altitude | 36000 |
| Route | ULTIB T420 TNT UL28 RODOL UM65 TENSO L603 BELOX DCT REMSI DCT NINEB M148 MAGEE |
| Aircraft | A320/M-SDE3FGHIRWY/LB1 |
Departure
| Time | 2026-04-26 10:28 |
|---|---|
| Airport | London Heathrow Airport (EGLL) |
Arrival
| Time | 2026-04-26 11:29 |
|---|---|
| Airport | George Best Belfast City Airport (EGAC) |
| Time | Latitude | Longitude | Altitude | Speed | Heading |
|---|---|---|---|---|---|
| 2026-04-26 09:52 | 51.46926 | -0.48718 | 88 ft | 0 kts | 360° |
| 2026-04-26 09:54 | 51.46924 | -0.48718 | 88 ft | 0 kts | 360° |
| 2026-04-26 10:19 | 51.46911 | -0.48717 | 89 ft | 2 kts | 360° |
| 2026-04-26 10:19 | 51.46889 | -0.48714 | 87 ft | 4 kts | 328° |
| 2026-04-26 10:19 | 51.46876 | -0.48685 | 89 ft | 3 kts | 270° |
| 2026-04-26 10:19 | 51.46876 | -0.48670 | 87 ft | 0 kts | 270° |
| 2026-04-26 10:21 | 51.46876 | -0.48671 | 87 ft | 0 kts | 270° |
| 2026-04-26 10:21 | 51.46873 | -0.48722 | 89 ft | 8 kts | 256° |
| 2026-04-26 10:21 | 51.46825 | -0.48754 | 88 ft | 8 kts | 178° |
| 2026-04-26 10:22 | 51.46795 | -0.48753 | 89 ft | 0 kts | 179° |
| 2026-04-26 10:22 | 51.46778 | -0.48752 | 87 ft | 7 kts | 179° |
| 2026-04-26 10:22 | 51.46725 | -0.48751 | 87 ft | 7 kts | 179° |
| 2026-04-26 10:23 | 51.46714 | -0.48751 | 87 ft | 0 kts | 180° |
| 2026-04-26 10:24 | 51.46706 | -0.48751 | 87 ft | 2 kts | 180° |
| 2026-04-26 10:25 | 51.46681 | -0.48751 | 87 ft | 5 kts | 180° |
| 2026-04-26 10:25 | 51.46640 | -0.48751 | 87 ft | 7 kts | 182° |
| 2026-04-26 10:25 | 51.46592 | -0.48775 | 89 ft | 0 kts | 200° |
| 2026-04-26 10:26 | 51.46591 | -0.48775 | 89 ft | 1 kts | 200° |
| 2026-04-26 10:26 | 51.46554 | -0.48789 | 89 ft | 8 kts | 185° |
| 2026-04-26 10:27 | 51.46496 | -0.48758 | 88 ft | 10 kts | 137° |
| 2026-04-26 10:27 | 51.46477 | -0.48645 | 88 ft | 11 kts | 89° |
| 2026-04-26 10:27 | 51.46477 | -0.48619 | 88 ft | 5 kts | 89° |
| 2026-04-26 10:27 | 51.46478 | -0.48281 | 89 ft | 65 kts | 90° |
| 2026-04-26 10:28 | 51.46482 | -0.47232 | 87 ft | 123 kts | 89° |
| 2026-04-26 10:28 | 51.46486 | -0.45627 | 254 ft | 151 kts | 90° |
| 2026-04-26 10:28 | 51.46499 | -0.43928 | 826 ft | 158 kts | 89° |
| 2026-04-26 10:28 | 51.46538 | -0.42075 | 1261 ft | 177 kts | 84° |
| 2026-04-26 10:29 | 51.47051 | -0.40134 | 1557 ft | 206 kts | 54° |
| 2026-04-26 10:29 | 51.48019 | -0.38241 | 2002 ft | 231 kts | 53° |
| 2026-04-26 10:29 | 51.49081 | -0.36145 | 2569 ft | 250 kts | 53° |
| 2026-04-26 10:29 | 51.50188 | -0.33950 | 3530 ft | 255 kts | 54° |
| 2026-04-26 10:30 | 51.51315 | -0.31717 | 4525 ft | 259 kts | 52° |
| 2026-04-26 10:30 | 51.52382 | -0.29354 | 5399 ft | 264 kts | 65° |
| 2026-04-26 10:30 | 51.53052 | -0.26585 | 6252 ft | 269 kts | 68° |
| 2026-04-26 10:30 | 51.54106 | -0.24082 | 7069 ft | 277 kts | 42° |
| 2026-04-26 10:31 | 51.55855 | -0.22550 | 7889 ft | 282 kts | 13° |
| 2026-04-26 10:31 | 51.57743 | -0.22552 | 8686 ft | 285 kts | 347° |
| 2026-04-26 10:31 | 51.59709 | -0.23290 | 9599 ft | 288 kts | 347° |
| 2026-04-26 10:31 | 51.61643 | -0.24060 | 10415 ft | 292 kts | 339° |
| 2026-04-26 10:32 | 51.63488 | -0.25499 | 11035 ft | 302 kts | 329° |
| 2026-04-26 10:32 | 51.65377 | -0.27246 | 11259 ft | 325 kts | 328° |
| 2026-04-26 10:32 | 51.67365 | -0.29146 | 11692 ft | 338 kts | 327° |
| 2026-04-26 10:32 | 51.69399 | -0.31112 | 12370 ft | 343 kts | 328° |
| 2026-04-26 10:33 | 51.71449 | -0.33101 | 13097 ft | 346 kts | 327° |
| 2026-04-26 10:33 | 51.73522 | -0.35111 | 13827 ft | 349 kts | 327° |
| 2026-04-26 10:33 | 51.75618 | -0.37143 | 14509 ft | 353 kts | 327° |
| 2026-04-26 10:33 | 51.77730 | -0.39190 | 15113 ft | 356 kts | 327° |
| 2026-04-26 10:34 | 51.79865 | -0.41262 | 15740 ft | 359 kts | 327° |
| 2026-04-26 10:34 | 51.82019 | -0.43352 | 16364 ft | 362 kts | 327° |
| 2026-04-26 10:34 | 51.84190 | -0.45457 | 16988 ft | 365 kts | 327° |
| 2026-04-26 10:34 | 51.86378 | -0.47580 | 17630 ft | 368 kts | 327° |
| 2026-04-26 10:35 | 51.88589 | -0.49725 | 18239 ft | 372 kts | 327° |
| 2026-04-26 10:35 | 51.90818 | -0.51892 | 18827 ft | 375 kts | 327° |
| 2026-04-26 10:35 | 51.93064 | -0.54081 | 19409 ft | 378 kts | 326° |
| 2026-04-26 10:35 | 51.95324 | -0.56287 | 20014 ft | 380 kts | 326° |
| 2026-04-26 10:36 | 51.97603 | -0.58516 | 20631 ft | 383 kts | 326° |
| 2026-04-26 10:36 | 51.99886 | -0.60754 | 21234 ft | 385 kts | 326° |
| 2026-04-26 10:36 | 52.02181 | -0.63004 | 21818 ft | 387 kts | 326° |
| 2026-04-26 10:36 | 52.04493 | -0.65267 | 22391 ft | 389 kts | 326° |
| 2026-04-26 10:37 | 52.06821 | -0.67550 | 22963 ft | 392 kts | 326° |
| 2026-04-26 10:37 | 52.09156 | -0.69846 | 23516 ft | 394 kts | 326° |
| 2026-04-26 10:37 | 52.11512 | -0.72165 | 24052 ft | 396 kts | 326° |
| 2026-04-26 10:37 | 52.13875 | -0.74486 | 24488 ft | 399 kts | 326° |
| 2026-04-26 10:38 | 52.16257 | -0.76828 | 24933 ft | 400 kts | 326° |
| 2026-04-26 10:38 | 52.18647 | -0.79184 | 25380 ft | 402 kts | 326° |
| 2026-04-26 10:38 | 52.21043 | -0.81553 | 25805 ft | 404 kts | 326° |
| 2026-04-26 10:38 | 52.23453 | -0.83944 | 26224 ft | 406 kts | 326° |
| 2026-04-26 10:39 | 52.25876 | -0.86354 | 26630 ft | 408 kts | 326° |
| 2026-04-26 10:39 | 52.28304 | -0.88771 | 27059 ft | 410 kts | 326° |
| 2026-04-26 10:39 | 52.30747 | -0.91204 | 27468 ft | 412 kts | 326° |
| 2026-04-26 10:39 | 52.33198 | -0.93644 | 27879 ft | 413 kts | 326° |
| 2026-04-26 10:40 | 52.35661 | -0.96094 | 28279 ft | 415 kts | 325° |
| 2026-04-26 10:40 | 52.38135 | -0.98560 | 28671 ft | 417 kts | 325° |
| 2026-04-26 10:40 | 52.40621 | -1.01047 | 29035 ft | 420 kts | 325° |
| 2026-04-26 10:40 | 52.43089 | -1.03520 | 29375 ft | 422 kts | 325° |
| 2026-04-26 10:41 | 52.45601 | -1.06044 | 29737 ft | 424 kts | 325° |
| 2026-04-26 10:41 | 52.48127 | -1.08585 | 30094 ft | 427 kts | 325° |
| 2026-04-26 10:41 | 52.50660 | -1.11135 | 30436 ft | 429 kts | 325° |
| 2026-04-26 10:41 | 52.53209 | -1.13696 | 30750 ft | 430 kts | 325° |
| 2026-04-26 10:42 | 52.55772 | -1.16270 | 31050 ft | 432 kts | 325° |
| 2026-04-26 10:42 | 52.58328 | -1.18842 | 31465 ft | 431 kts | 325° |
| 2026-04-26 10:42 | 52.60884 | -1.21419 | 31899 ft | 429 kts | 324° |
| 2026-04-26 10:42 | 52.63426 | -1.23989 | 32323 ft | 428 kts | 324° |
| 2026-04-26 10:43 | 52.65963 | -1.26560 | 32745 ft | 427 kts | 324° |
| 2026-04-26 10:43 | 52.68495 | -1.29133 | 33174 ft | 426 kts | 324° |
| 2026-04-26 10:43 | 52.71017 | -1.31696 | 33607 ft | 425 kts | 324° |
| 2026-04-26 10:43 | 52.73534 | -1.34259 | 34105 ft | 424 kts | 324° |
| 2026-04-26 10:44 | 52.76045 | -1.36821 | 34536 ft | 424 kts | 324° |
| 2026-04-26 10:44 | 52.78548 | -1.39374 | 34904 ft | 423 kts | 324° |
| 2026-04-26 10:44 | 52.81047 | -1.41924 | 35254 ft | 422 kts | 324° |
| 2026-04-26 10:44 | 52.83546 | -1.44480 | 35572 ft | 422 kts | 324° |
| 2026-04-26 10:45 | 52.86046 | -1.47038 | 35887 ft | 422 kts | 324° |
| 2026-04-26 10:45 | 52.88507 | -1.49563 | 36192 ft | 422 kts | 324° |
| 2026-04-26 10:45 | 52.91013 | -1.52135 | 36309 ft | 424 kts | 324° |
| 2026-04-26 10:45 | 52.93530 | -1.54725 | 36332 ft | 426 kts | 324° |
| 2026-04-26 10:46 | 52.98581 | -1.59934 | 36332 ft | 427 kts | 324° |
| 2026-04-26 10:46 | 53.03623 | -1.65159 | 36329 ft | 427 kts | 324° |
| 2026-04-26 10:47 | 53.08672 | -1.70397 | 36329 ft | 427 kts | 324° |
| 2026-04-26 10:47 | 53.13715 | -1.75639 | 36330 ft | 427 kts | 324° |
| 2026-04-26 10:48 | 53.18756 | -1.80895 | 36333 ft | 427 kts | 324° |
| 2026-04-26 10:48 | 53.23792 | -1.86166 | 36330 ft | 427 kts | 324° |
| 2026-04-26 10:49 | 53.28921 | -1.91223 | 36347 ft | 428 kts | 327° |
| 2026-04-26 10:49 | 53.34142 | -1.96056 | 36342 ft | 428 kts | 327° |
| 2026-04-26 10:50 | 53.38473 | -2.00081 | 36339 ft | 428 kts | 327° |
| 2026-04-26 10:50 | 53.44532 | -2.05834 | 36333 ft | 428 kts | 327° |
| 2026-04-26 10:51 | 53.52247 | -2.13231 | 36325 ft | 428 kts | 326° |
| 2026-04-26 10:52 | 53.57263 | -2.18579 | 36316 ft | 423 kts | 316° |
| 2026-04-26 10:52 | 53.61013 | -2.26023 | 36321 ft | 415 kts | 297° |
| 2026-04-26 10:53 | 53.62958 | -2.33366 | 36307 ft | 413 kts | 289° |
| 2026-04-26 10:53 | 53.65029 | -2.42402 | 36310 ft | 413 kts | 289° |
| 2026-04-26 10:54 | 53.68128 | -2.55983 | 36309 ft | 414 kts | 289° |
| 2026-04-26 10:54 | 53.70185 | -2.65055 | 36309 ft | 414 kts | 289° |
| 2026-04-26 10:55 | 53.72236 | -2.74125 | 36328 ft | 413 kts | 288° |
| 2026-04-26 10:55 | 53.74279 | -2.83188 | 36328 ft | 412 kts | 288° |
| 2026-04-26 10:56 | 53.76294 | -2.92190 | 36317 ft | 412 kts | 288° |
| 2026-04-26 10:56 | 53.78310 | -3.01268 | 36320 ft | 412 kts | 288° |
| 2026-04-26 10:57 | 53.80320 | -3.10338 | 36322 ft | 411 kts | 288° |
| 2026-04-26 10:57 | 53.82324 | -3.19402 | 36323 ft | 411 kts | 288° |
| 2026-04-26 10:58 | 53.84318 | -3.28459 | 36319 ft | 410 kts | 288° |
| 2026-04-26 10:58 | 53.86302 | -3.37512 | 36315 ft | 410 kts | 288° |
| 2026-04-26 10:59 | 53.88278 | -3.46601 | 36308 ft | 410 kts | 288° |
| 2026-04-26 10:59 | 53.90233 | -3.55599 | 36311 ft | 410 kts | 288° |
| 2026-04-26 11:00 | 53.92196 | -3.64673 | 36311 ft | 409 kts | 288° |
| 2026-04-26 11:00 | 53.94145 | -3.73760 | 36328 ft | 409 kts | 287° |
| 2026-04-26 11:01 | 53.96167 | -3.82806 | 36304 ft | 412 kts | 292° |
| 2026-04-26 11:01 | 53.98990 | -3.91306 | 36301 ft | 414 kts | 296° |
| 2026-04-26 11:02 | 54.01862 | -3.99804 | 36301 ft | 414 kts | 296° |
| 2026-04-26 11:02 | 54.04719 | -4.08322 | 36305 ft | 414 kts | 296° |
| 2026-04-26 11:03 | 54.07794 | -4.16579 | 36314 ft | 416 kts | 301° |
| 2026-04-26 11:03 | 54.11140 | -4.24625 | 36320 ft | 416 kts | 301° |
| 2026-04-26 11:04 | 54.12803 | -4.28653 | 36130 ft | 415 kts | 300° |
| 2026-04-26 11:04 | 54.14456 | -4.32671 | 35479 ft | 415 kts | 300° |
| 2026-04-26 11:04 | 54.16119 | -4.36710 | 34881 ft | 414 kts | 300° |
| 2026-04-26 11:04 | 54.17772 | -4.40721 | 34310 ft | 413 kts | 300° |
| 2026-04-26 11:05 | 54.19424 | -4.44730 | 33697 ft | 411 kts | 300° |
| 2026-04-26 11:05 | 54.21043 | -4.48663 | 33152 ft | 407 kts | 300° |
| 2026-04-26 11:05 | 54.22682 | -4.52655 | 32592 ft | 404 kts | 300° |
| 2026-04-26 11:05 | 54.24270 | -4.56533 | 32045 ft | 402 kts | 300° |
| 2026-04-26 11:06 | 54.25865 | -4.60432 | 31492 ft | 400 kts | 300° |
| 2026-04-26 11:06 | 54.27451 | -4.64319 | 30957 ft | 398 kts | 301° |
| 2026-04-26 11:06 | 54.29030 | -4.68199 | 30402 ft | 396 kts | 301° |
| 2026-04-26 11:06 | 54.30594 | -4.72053 | 29813 ft | 394 kts | 301° |
| 2026-04-26 11:07 | 54.32148 | -4.75894 | 29224 ft | 391 kts | 301° |
| 2026-04-26 11:07 | 54.33693 | -4.79716 | 28703 ft | 389 kts | 301° |
| 2026-04-26 11:07 | 54.35235 | -4.83532 | 28128 ft | 387 kts | 301° |
| 2026-04-26 11:07 | 54.36768 | -4.87333 | 27604 ft | 386 kts | 301° |
| 2026-04-26 11:08 | 54.38288 | -4.91107 | 27110 ft | 384 kts | 301° |
| 2026-04-26 11:08 | 54.39800 | -4.94864 | 26658 ft | 382 kts | 301° |
| 2026-04-26 11:08 | 54.41307 | -4.98612 | 26212 ft | 379 kts | 301° |
| 2026-04-26 11:08 | 54.42801 | -5.02327 | 25793 ft | 377 kts | 301° |
| 2026-04-26 11:09 | 54.44285 | -5.06025 | 25381 ft | 375 kts | 301° |
| 2026-04-26 11:09 | 54.45747 | -5.09662 | 24972 ft | 374 kts | 301° |
| 2026-04-26 11:09 | 54.47247 | -5.13372 | 24565 ft | 372 kts | 302° |
| 2026-04-26 11:09 | 54.48701 | -5.16964 | 24168 ft | 370 kts | 302° |
| 2026-04-26 11:10 | 54.50196 | -5.20568 | 23738 ft | 370 kts | 306° |
| 2026-04-26 11:10 | 54.52004 | -5.23715 | 23262 ft | 371 kts | 318° |
| 2026-04-26 11:10 | 54.54035 | -5.26457 | 22782 ft | 370 kts | 319° |
| 2026-04-26 11:10 | 54.56055 | -5.29180 | 22311 ft | 367 kts | 319° |
| 2026-04-26 11:11 | 54.58062 | -5.31902 | 21843 ft | 365 kts | 319° |
| 2026-04-26 11:11 | 54.60044 | -5.34603 | 21379 ft | 363 kts | 318° |
| 2026-04-26 11:11 | 54.62018 | -5.37297 | 20907 ft | 360 kts | 319° |
| 2026-04-26 11:11 | 54.63978 | -5.39974 | 20471 ft | 358 kts | 318° |
| 2026-04-26 11:12 | 54.65924 | -5.42635 | 20032 ft | 355 kts | 318° |
| 2026-04-26 11:12 | 54.67859 | -5.45284 | 19587 ft | 353 kts | 318° |
| 2026-04-26 11:12 | 54.69778 | -5.47918 | 19148 ft | 351 kts | 318° |
| 2026-04-26 11:12 | 54.71685 | -5.50538 | 18714 ft | 349 kts | 318° |
| 2026-04-26 11:13 | 54.73577 | -5.53141 | 18237 ft | 347 kts | 318° |
| 2026-04-26 11:13 | 54.75464 | -5.55744 | 17760 ft | 345 kts | 318° |
| 2026-04-26 11:13 | 54.77331 | -5.58320 | 17296 ft | 342 kts | 318° |
| 2026-04-26 11:13 | 54.79190 | -5.60884 | 16832 ft | 340 kts | 318° |
| 2026-04-26 11:14 | 54.80866 | -5.63704 | 16389 ft | 332 kts | 302° |
| 2026-04-26 11:14 | 54.81800 | -5.67281 | 15955 ft | 323 kts | 279° |
| 2026-04-26 11:14 | 54.81831 | -5.71113 | 15512 ft | 318 kts | 257° |
| 2026-04-26 11:14 | 54.81023 | -5.74590 | 15069 ft | 315 kts | 240° |
| 2026-04-26 11:15 | 54.79913 | -5.77868 | 14600 ft | 315 kts | 239° |
| 2026-04-26 11:15 | 54.78783 | -5.81108 | 14182 ft | 314 kts | 238° |
| 2026-04-26 11:15 | 54.77655 | -5.84333 | 13832 ft | 312 kts | 239° |
| 2026-04-26 11:15 | 54.76535 | -5.87544 | 13283 ft | 310 kts | 239° |
| 2026-04-26 11:16 | 54.75427 | -5.90732 | 12855 ft | 308 kts | 238° |
| 2026-04-26 11:16 | 54.74334 | -5.93899 | 12434 ft | 306 kts | 239° |
| 2026-04-26 11:16 | 54.73254 | -5.97047 | 12027 ft | 303 kts | 238° |
| 2026-04-26 11:16 | 54.72185 | -6.00183 | 11623 ft | 301 kts | 238° |
| 2026-04-26 11:17 | 54.71130 | -6.03297 | 11230 ft | 299 kts | 238° |
| 2026-04-26 11:17 | 54.70090 | -6.06389 | 10839 ft | 297 kts | 238° |
| 2026-04-26 11:17 | 54.69065 | -6.09457 | 10608 ft | 289 kts | 238° |
| 2026-04-26 11:17 | 54.67873 | -6.12158 | 10380 ft | 280 kts | 220° |
| 2026-04-26 11:18 | 54.66314 | -6.14132 | 10146 ft | 274 kts | 214° |
| 2026-04-26 11:18 | 54.64752 | -6.15950 | 9901 ft | 268 kts | 214° |
| 2026-04-26 11:18 | 54.63204 | -6.17737 | 9548 ft | 267 kts | 213° |
| 2026-04-26 11:18 | 54.61661 | -6.19515 | 9204 ft | 265 kts | 213° |
| 2026-04-26 11:19 | 54.60127 | -6.21281 | 8844 ft | 264 kts | 213° |
| 2026-04-26 11:19 | 54.58603 | -6.23036 | 8491 ft | 263 kts | 213° |
| 2026-04-26 11:19 | 54.57078 | -6.24797 | 8145 ft | 263 kts | 213° |
| 2026-04-26 11:19 | 54.55562 | -6.26546 | 7802 ft | 262 kts | 213° |
| 2026-04-26 11:20 | 54.54076 | -6.28256 | 7356 ft | 258 kts | 213° |
| 2026-04-26 11:20 | 54.53065 | -6.29420 | 6931 ft | 258 kts | 213° |
| 2026-04-26 11:20 | 54.51092 | -6.31683 | 6117 ft | 257 kts | 213° |
| 2026-04-26 11:20 | 54.49606 | -6.33379 | 5498 ft | 256 kts | 213° |
| 2026-04-26 11:21 | 54.47976 | -6.34514 | 4935 ft | 254 kts | 186° |
| 2026-04-26 11:21 | 54.46259 | -6.34110 | 4456 ft | 250 kts | 157° |
| 2026-04-26 11:21 | 54.44904 | -6.32324 | 4024 ft | 246 kts | 133° |
| 2026-04-26 11:21 | 54.43842 | -6.30063 | 3771 ft | 241 kts | 129° |
| 2026-04-26 11:22 | 54.42825 | -6.27804 | 3515 ft | 237 kts | 129° |
| 2026-04-26 11:22 | 54.41831 | -6.25577 | 3259 ft | 234 kts | 128° |
| 2026-04-26 11:22 | 54.40851 | -6.23364 | 3053 ft | 231 kts | 129° |
| 2026-04-26 11:22 | 54.39951 | -6.21068 | 3000 ft | 232 kts | 114° |
| 2026-04-26 11:23 | 54.39687 | -6.18334 | 3010 ft | 235 kts | 88° |
| 2026-04-26 11:23 | 54.39922 | -6.15555 | 3012 ft | 237 kts | 75° |
| 2026-04-26 11:23 | 54.40607 | -6.13014 | 3008 ft | 235 kts | 53° |
| 2026-04-26 11:23 | 54.41755 | -6.11076 | 3002 ft | 236 kts | 34° |
| 2026-04-26 11:24 | 54.43130 | -6.09454 | 3014 ft | 237 kts | 33° |
| 2026-04-26 11:24 | 54.44472 | -6.07874 | 3012 ft | 236 kts | 34° |
| 2026-04-26 11:24 | 54.45821 | -6.06278 | 3011 ft | 236 kts | 34° |
| 2026-04-26 11:24 | 54.47176 | -6.04673 | 3015 ft | 236 kts | 33° |
| 2026-04-26 11:25 | 54.48513 | -6.03088 | 2988 ft | 228 kts | 34° |
| 2026-04-26 11:25 | 54.49801 | -6.01560 | 2765 ft | 223 kts | 34° |
| 2026-04-26 11:25 | 54.51075 | -6.00047 | 2483 ft | 221 kts | 34° |
| 2026-04-26 11:25 | 54.52312 | -5.98578 | 2211 ft | 209 kts | 34° |
| 2026-04-26 11:26 | 54.53468 | -5.97203 | 1927 ft | 194 kts | 35° |
| 2026-04-26 11:26 | 54.54529 | -5.95941 | 1674 ft | 176 kts | 36° |
| 2026-04-26 11:26 | 54.55520 | -5.94760 | 1423 ft | 169 kts | 35° |
| 2026-04-26 11:26 | 54.56433 | -5.93673 | 1187 ft | 150 kts | 36° |
| 2026-04-26 11:27 | 54.57270 | -5.92676 | 985 ft | 142 kts | 36° |
| 2026-04-26 11:27 | 54.58063 | -5.91729 | 801 ft | 136 kts | 34° |
| 2026-04-26 11:27 | 54.58827 | -5.90805 | 622 ft | 132 kts | 34° |
| 2026-04-26 11:27 | 54.59583 | -5.89899 | 457 ft | 133 kts | 33° |
| 2026-04-26 11:28 | 54.60323 | -5.89020 | 276 ft | 129 kts | 32° |
| 2026-04-26 11:28 | 54.61060 | -5.88146 | 93 ft | 128 kts | 33° |
| 2026-04-26 11:28 | 54.61762 | -5.87313 | 19 ft | 106 kts | 34° |
| 2026-04-26 11:28 | 54.62227 | -5.86757 | 21 ft | 57 kts | 35° |
| 2026-04-26 11:29 | 54.62404 | -5.86528 | 22 ft | 16 kts | 59° |
| 2026-04-26 11:29 | 54.62476 | -5.86456 | 21 ft | 12 kts | 308° |
| 2026-04-26 11:29 | 54.62436 | -5.86542 | 21 ft | 12 kts | 185° |
| 2026-04-26 11:29 | 54.62359 | -5.86595 | 22 ft | 15 kts | 214° |
| 2026-04-26 11:30 | 54.62232 | -5.86743 | 21 ft | 26 kts | 216° |
| 2026-04-26 11:30 | 54.62129 | -5.86869 | 16 ft | 29 kts | 215° |
| 2026-04-26 11:30 | 54.61913 | -5.87129 | 18 ft | 15 kts | 213° |
| 2026-04-26 11:30 | 54.61829 | -5.87156 | 18 ft | 15 kts | 136° |
| 2026-04-26 11:31 | 54.61766 | -5.87009 | 21 ft | 12 kts | 130° |
| 2026-04-26 11:31 | 54.61693 | -5.87026 | 21 ft | 13 kts | 216° |
| 2026-04-26 11:31 | 54.61618 | -5.87119 | 21 ft | 13 kts | 216° |
| 2026-04-26 11:31 | 54.61570 | -5.87178 | 21 ft | 3 kts | 215° |
| 2026-04-26 11:32 | 54.61542 | -5.87178 | 21 ft | 6 kts | 153° |
| 2026-04-26 11:32 | 54.61507 | -5.87150 | 22 ft | 3 kts | 156° |
| 2026-04-26 11:32 | 54.61499 | -5.87145 | 23 ft | 0 kts | 156° |